createdAt,value
2019-04-22T00:00:08.836Z,56.4
2019-04-22T00:05:42.649Z,55.8
2019-04-22T00:11:10.865Z,55.7
2019-04-22T00:15:47.067Z,59.2
2019-04-22T00:21:19.304Z,62.1
2019-04-22T00:26:08.538Z,67.2
2019-04-22T00:31:14.197Z,67
2019-04-22T00:35:54.323Z,81.4
2019-04-22T00:41:05.358Z,69
2019-04-22T00:46:00.925Z,71.1
2019-04-22T00:51:22.312Z,71
2019-04-22T00:56:05.424Z,74.7
2019-04-22T01:01:07.657Z,79.2
2019-04-22T01:06:09.351Z,77.1
2019-04-22T01:11:11.111Z,80.9
2019-04-22T01:16:10.643Z,83.5
2019-04-22T01:21:28.626Z,95.5
2019-04-22T01:26:09.289Z,96.8
2019-04-22T01:30:32.123Z,99.9
2019-04-22T01:35:35.692Z,99.9
2019-04-22T01:41:14.554Z,99.9
2019-04-22T01:46:07.705Z,93.5
2019-04-22T01:51:04.619Z,99.9
2019-04-22T01:56:05.193Z,99.9
2019-04-22T02:01:04.352Z,99.9
2019-04-22T02:06:05.408Z,99.9
2019-04-22T02:11:07.028Z,99.9
2019-04-22T02:15:58.095Z,99.9
2019-04-22T02:20:54.314Z,99.9
2019-04-22T02:26:15.356Z,99.9
2019-04-22T02:31:35.499Z,74.3
2019-04-22T02:36:28.872Z,99.9
2019-04-22T02:41:40.663Z,99.9
2019-04-22T02:46:42.752Z,99.9
2019-04-22T02:51:21.417Z,99.9
2019-04-22T02:56:26.757Z,99.9
2019-04-22T03:01:29.391Z,99.9
2019-04-22T03:06:23.783Z,99.9
2019-04-22T03:11:24.162Z,99.9
2019-04-22T03:16:42.681Z,99.9
2019-04-22T03:21:23.679Z,99.9
2019-04-22T03:26:18.137Z,99.9
2019-04-22T03:41:36.317Z,99.9
2019-04-22T03:46:10.752Z,99.9
2019-04-22T03:51:07.281Z,99.9
2019-04-22T03:56:36.366Z,99.9
2019-04-22T04:01:29.361Z,99.9
2019-04-22T04:06:04.607Z,99.9
2019-04-22T04:10:57.363Z,99.9
2019-04-22T04:16:10.089Z,99.9
2019-04-22T04:21:32.686Z,99.9
2019-04-22T04:26:26.167Z,99.9
2019-04-22T04:36:54.335Z,99.9
2019-04-22T04:41:15.102Z,99.9
2019-04-22T04:51:37.308Z,99.9
2019-04-22T04:56:10.491Z,99.9
2019-04-22T05:01:29.779Z,99.9
2019-04-22T05:06:12.318Z,99.9
2019-04-22T05:11:05.141Z,99.9
2019-04-22T05:21:29.320Z,99.9
2019-04-22T05:26:03.838Z,99.9
2019-04-22T05:31:07.934Z,99.9
2019-04-22T05:36:12.468Z,99.9
2019-04-22T05:41:02.092Z,99.9
2019-04-22T05:45:57.444Z,99.9
2019-04-22T05:51:00.892Z,99.9
2019-04-22T05:56:01.332Z,99.9
2019-04-22T06:06:13.602Z,99.9
2019-04-22T06:11:16.575Z,99.9
2019-04-22T06:15:56.753Z,99.9
2019-04-22T06:21:05.071Z,99.9
2019-04-22T06:26:18.790Z,99.9
2019-04-22T06:31:02.295Z,99.9
2019-04-22T06:36:12.660Z,99.9
2019-04-22T06:41:03.747Z,99.9
2019-04-22T06:46:07.918Z,99.9
2019-04-22T06:50:59.906Z,99.9
2019-04-22T06:55:59.288Z,99.9
2019-04-22T07:01:02.774Z,99.9
2019-04-22T07:06:34.658Z,99.9
2019-04-22T07:10:54.571Z,99.9
2019-04-22T07:16:18.217Z,99.9
2019-04-22T07:21:00.825Z,99.9
2019-04-22T07:25:57.747Z,99.9
2019-04-22T07:31:03.689Z,99.9
2019-04-22T07:36:45.377Z,99.9
2019-04-22T07:40:59.110Z,99.9
2019-04-22T07:46:06.673Z,96.4
2019-04-22T07:51:19.702Z,96.3
2019-04-22T07:55:57.211Z,87.7
2019-04-22T08:01:01.793Z,87.5
2019-04-22T08:06:16.298Z,84.6
2019-04-22T08:11:21.356Z,80.5
2019-04-22T08:15:53.352Z,80.5
2019-04-22T08:21:04.072Z,75.5
2019-04-22T08:26:00.623Z,75
2019-04-22T08:31:07.476Z,69.7
2019-04-22T08:36:17.313Z,69.6
2019-04-22T08:41:04.574Z,66.1
2019-04-22T08:46:16.451Z,59
2019-04-22T08:51:00.182Z,58.9
2019-04-22T08:56:14.136Z,57.3
2019-04-22T09:01:11.045Z,55
2019-04-22T09:06:38.289Z,56
2019-04-22T09:10:56.922Z,56
2019-04-22T09:16:02.011Z,53
2019-04-22T09:21:18.240Z,51
2019-04-22T09:26:01.152Z,51
2019-04-22T09:31:05.572Z,49.6
2019-04-22T09:36:08.785Z,43.9
2019-04-22T09:40:58.177Z,41.9
2019-04-22T09:45:52.247Z,40.3
2019-04-22T09:50:58.700Z,40.2
2019-04-22T09:55:56.589Z,41.8
2019-04-22T10:01:02.461Z,41.5
2019-04-22T10:06:09.718Z,41.4
2019-04-22T10:11:12.527Z,41.1
2019-04-22T10:16:10.244Z,41.1
2019-04-22T10:21:08.234Z,41.1
2019-04-22T10:26:04.371Z,41
2019-04-22T10:31:19.047Z,41.2
2019-04-22T10:35:18.620Z,41.1
2019-04-22T10:40:15.677Z,40.8
2019-04-22T10:45:08.382Z,39.8
2019-04-22T10:50:06.865Z,40
2019-04-22T10:55:05.645Z,40.4
2019-04-22T11:00:05.680Z,41.1
2019-04-22T11:05:06.355Z,41.3
2019-04-22T11:10:36.635Z,42.5
2019-04-22T11:15:03.699Z,42.5
2019-04-22T11:20:13.744Z,41.2
2019-04-22T11:25:03.820Z,41.2
2019-04-22T11:30:05.684Z,40.5
2019-04-22T11:35:10.063Z,40.5
2019-04-22T11:40:25.255Z,40.5
2019-04-22T11:45:05.895Z,40.2
2019-04-22T11:50:03.949Z,40.1
2019-04-22T11:55:11.090Z,40.2
2019-04-22T12:00:04.892Z,40.3
2019-04-22T12:05:14.297Z,40.5
2019-04-22T12:10:29.485Z,41.5
2019-04-22T12:15:03.925Z,41.4
2019-04-22T12:20:09.045Z,42.2
2019-04-22T12:25:10.711Z,42
2019-04-22T12:30:07.043Z,42.8
2019-04-22T12:35:09.442Z,42.9
2019-04-22T12:40:04.729Z,42.8
2019-04-22T12:45:22.630Z,41.9
2019-04-22T12:50:20.395Z,42.6
2019-04-22T12:55:06.203Z,42.3
2019-04-22T13:00:08.150Z,41.5
2019-04-22T13:05:06.178Z,41
2019-04-22T13:10:04.240Z,40.9
2019-04-22T13:15:07.973Z,40.8
2019-04-22T13:20:11.287Z,41.1
2019-04-22T13:25:06.247Z,41.7
2019-04-22T13:30:06.219Z,41.8
2019-04-22T13:35:05.796Z,41.1
2019-04-22T13:40:11.139Z,39.3
2019-04-22T13:45:05.073Z,39.5
2019-04-22T13:51:03.205Z,39.7
2019-04-22T13:56:00.504Z,39.2
2019-04-22T14:00:07.630Z,39.2
2019-04-22T14:05:06.744Z,38.8
2019-04-22T14:10:08.885Z,38
2019-04-22T14:15:11.921Z,36.8
2019-04-22T14:20:31.203Z,37.6
2019-04-22T14:25:05.178Z,37.5
2019-04-22T14:30:08.569Z,37.8
2019-04-22T14:35:04.754Z,37.9
2019-04-22T14:40:09.980Z,37
2019-04-22T14:46:19.145Z,35.4
2019-04-22T14:50:51.000Z,35
2019-04-22T14:55:19.574Z,34.9
2019-04-22T15:00:06.025Z,35.3
2019-04-22T15:05:06.236Z,36
2019-04-22T15:10:22.444Z,34.4
2019-04-22T15:15:05.983Z,36.5
2019-04-22T15:20:04.025Z,36.4
2019-04-22T15:25:05.661Z,34.8
2019-04-22T15:30:03.823Z,34.8
2019-04-22T15:35:03.297Z,35.1
2019-04-22T15:40:04.893Z,35.8
2019-04-22T15:45:09.061Z,34.6
2019-04-22T15:50:06.223Z,34.2
2019-04-22T15:55:04.658Z,34.3
2019-04-22T16:00:35.171Z,33.2
2019-04-22T16:05:06.835Z,33.7
2019-04-22T16:10:06.148Z,34.1
2019-04-22T16:15:11.578Z,35.4
2019-04-22T16:20:15.446Z,35
2019-04-22T16:25:07.186Z,36.1
2019-04-22T16:30:05.346Z,36.1
2019-04-22T16:35:10.430Z,36.2
2019-04-22T16:40:04.987Z,36.1
2019-04-22T16:45:33.817Z,36.9
2019-04-22T16:50:09.833Z,37.2
2019-04-22T16:55:05.235Z,37.2
2019-04-22T17:00:04.620Z,37.9
2019-04-22T17:05:05.473Z,37.9
2019-04-22T17:10:04.117Z,37.9
2019-04-22T17:15:12.231Z,39.4
2019-04-22T17:20:03.324Z,39.4
2019-04-22T17:25:08.921Z,40.7
2019-04-22T17:30:06.761Z,41.3
2019-04-22T17:35:04.303Z,41.2
2019-04-22T17:40:43.681Z,42.2
2019-04-22T17:45:59.352Z,42.5
2019-04-22T17:50:59.429Z,43.2
2019-04-22T17:56:01.920Z,43.6
2019-04-22T18:00:44.314Z,43.6
2019-04-22T18:05:16.345Z,44.6
2019-04-22T18:10:57.961Z,45.1
2019-04-22T18:15:47.835Z,45.1
2019-04-22T18:20:42.769Z,45.9
2019-04-22T18:25:31.572Z,45.8
2019-04-22T18:30:41.986Z,46.7
2019-04-22T18:35:44.002Z,47.5
2019-04-22T18:40:58.825Z,48.2
2019-04-22T18:46:09.379Z,48.7
2019-04-22T18:50:54.929Z,49.4
2019-04-22T18:55:42.369Z,49.7
2019-04-22T19:00:07.125Z,49.7
2019-04-22T19:05:44.738Z,51.1
2019-04-22T19:11:01.850Z,51.1
2019-04-22T19:16:12.554Z,53
2019-04-22T19:21:01.076Z,53
2019-04-22T19:25:41.685Z,54.2
2019-04-22T19:31:02.424Z,56.7
2019-04-22T19:35:43.077Z,58.1
2019-04-22T19:41:06.705Z,58
2019-04-22T19:45:45.769Z,59.2
2019-04-22T19:51:02.508Z,63.5
2019-04-22T19:55:49.141Z,66.1
2019-04-22T20:00:37.293Z,68.3
2019-04-22T20:05:59.051Z,71.5
2019-04-22T20:10:45.354Z,74.8
2019-04-22T20:15:50.481Z,78
2019-04-22T20:21:28.061Z,81
2019-04-22T20:25:27.792Z,81
2019-04-22T20:30:54.891Z,85.8
2019-04-22T20:35:56.468Z,85.8
2019-04-22T20:40:48.995Z,87.7
2019-04-22T20:45:57.292Z,91.1
2019-04-22T20:50:57.524Z,92.8
2019-04-22T20:56:04.068Z,93.6
2019-04-22T21:00:50.105Z,95.3
2019-04-22T21:05:33.804Z,95.3
2019-04-22T21:10:37.114Z,96.2
2019-04-22T21:16:03.706Z,99.3
2019-04-22T21:21:02.070Z,99.9
2019-04-22T21:25:34.580Z,99.9
2019-04-22T21:30:47.749Z,99.9
2019-04-22T21:36:05.125Z,99.9
2019-04-22T21:40:47.183Z,99.9
2019-04-22T21:45:32.085Z,99.9
2019-04-22T21:51:24.135Z,99.9
2019-04-22T21:56:22.229Z,99.9
2019-04-22T22:01:13.656Z,99.9
2019-04-22T22:05:38.976Z,99.9
2019-04-22T22:10:57.797Z,99.9
2019-04-22T22:15:50.816Z,99.9
2019-04-22T22:20:53.642Z,99.9
2019-04-22T22:25:56.630Z,99.9
2019-04-22T22:31:14.537Z,99.9
2019-04-22T22:35:45.387Z,99.9
2019-04-22T22:40:15.365Z,99.9
2019-04-22T22:45:28.810Z,99.9
2019-04-22T22:50:50.576Z,99.9
2019-04-22T22:55:50.529Z,99.9
2019-04-22T23:00:43.869Z,99.9
2019-04-22T23:05:50.265Z,99.9
2019-04-22T23:11:30.806Z,99.9
2019-04-22T23:15:44.112Z,99.9
2019-04-22T23:20:07.545Z,99.9
2019-04-22T23:25:54.574Z,99.9
2019-04-22T23:30:23.798Z,99.9
2019-04-22T23:35:36.240Z,99.9
2019-04-22T23:40:46.994Z,99.9
2019-04-22T23:45:44.370Z,99.9
2019-04-22T23:50:49.310Z,99.9
2019-04-22T23:55:50.461Z,99.9
